Henderson, Nevada Weather observations

Data are for observation ending at time listed.
 Day   Time    Ave.   Ave.  Ave.  Vector   Max.   Stn.    Total    Solar   Ave.  
  of    of     Air    Rel.  Wind   Wind    Wind   Baro.  Precip.   Rad.    Soil  
Year   Day     Temp.  Hum.  Speed  Dir.    Gust   Pres.                    Temp. 
2015   (PST)    F      %     mph   deg.    mph     mb.     in.     W/m2     F   
------------------------------------------------------------------------------
 241   12:00  106.6    13    2.9   131      8.5   934.8    0.00     710    115.6
 241   12:10  105.7    13    2.5   196      6.9   934.7    0.00     930    114.0
 241   12:20  108.3    12    3.9   202     10.4   934.6    0.00     999    115.2
 241   12:30  106.6    13    3.9   242     11.7   934.4    0.00    1055    115.2
 241   12:40  106.9    13    5.4   160     16.3   934.5    0.00     566    115.0
 241   12:50  107.4    13    4.2   147     11.0   934.3    0.00     827    114.2
 241   13:00  106.5    13    2.2   271      6.4   934.0    0.00     391    113.4
 241   13:10  104.5    14    4.3   230     12.7   933.9    0.00     219    111.6
 241   13:20  104.8    13    3.5   219      9.9   933.8    0.00     355    109.9
 241   13:30  105.9    13    4.1   222     11.6   933.7    0.00     645    109.4
 241   13:40  105.8    13    3.6   224      9.4   933.6    0.00     312    109.9
 241   13:50  105.0    13    4.5   171     10.4   933.4    0.00     270    108.9
 241   14:00  105.2    13    5.4   253     16.9   933.2    0.00     563    108.2
 241   14:10  106.8    12    4.1   177     19.6   933.1    0.00     488    109.4
 241   14:20  105.8    12    5.2   192     14.5   933.1    0.00     499    109.1
 241   14:30  105.6    12    3.4   185      7.9   932.9    0.00     268    108.8
 241   14:40  105.1    13    4.4   262     13.7   932.8    0.00     459    107.9
 241   14:50  106.1    12    4.5   256     10.4   932.6    0.00     723    108.8
 241   15:00  107.5    12    4.5   212     10.8   932.6    0.00     757    110.4
 241   15:10  107.6    12    3.9   206     10.2   932.5    0.00     608    111.4
 241   15:20  107.3    12    3.3   156     16.1   932.4    0.00     652    111.8
 241   15:30  106.8    12    4.8   221      9.3   932.3    0.00     655    112.2
 241   15:40  108.0    12    3.6   175      9.5   932.2    0.00     657    112.5
 241   15:50  107.7    12    5.5   221     14.2   932.0    0.00     610    112.9
 241   16:00  107.4    12    4.9   187     12.8   932.1    0.00     533    112.8
 241   16:10  105.8    12    8.6   265     16.5   931.9    0.00     446    112.2
 241   16:20  105.7    12    5.4   255     14.2   931.9    0.00     468    111.3
 241   16:30  106.2    12    6.1   241     16.5   931.9    0.00     399    110.9
 241   16:40  105.4    12    5.5   264     13.2   931.8    0.00     344    110.2
 241   16:50  105.7    12    5.0   227     13.7   931.9    0.00     290    109.6
 241   17:00  105.3    12    4.5   208     12.0   931.9    0.00     247    109.1
 241   17:10  104.4    12    6.7   258     14.0   931.8    0.00     206    108.2
 241   17:20  104.0    12    5.7   248     15.7   931.8    0.00     168    107.1
 241   17:30  103.5    12    5.2   249     13.7   931.8    0.00     133    106.2
 241   17:40  103.0    12    5.5   257     13.2   931.8    0.00      96    105.1
 241   17:50  102.2    12    6.9   258     13.7   931.7    0.00      63    104.0
 241   18:00  101.4    12    7.0   252     15.7   931.8    0.00      21    102.7
 241   18:10  100.9    12    5.0   244     12.6   931.8    0.00      11    101.3
 241   18:20  100.5    12    5.9   245     13.2   931.8    0.00       7    100.0
 241   18:30  100.2    12    6.1   254     12.9   931.9    0.00       2    99.2
 241   18:40  100.0    12    6.8   252     14.2   931.8    0.00       0    98.5
 241   18:50   99.7    12    5.2   253     11.5   931.9    0.00       0    98.0
 241   19:00   99.3    12    4.9   246     11.8   931.9    0.00       0    97.4
 241   19:10   99.1    13    4.2   250     11.3   932.0    0.00       0    96.9
 241   19:20   98.8    13    3.9   250      8.8   932.1    0.00       0    96.4
 241   19:30   98.3    13    2.9   246      7.8   932.2    0.00       0    95.8
 241   19:40   97.9    13    2.6   250      6.6   932.2    0.00       0    95.2
 241   19:50   97.8    13    3.1   251      7.2   932.3    0.00       0    94.6
 241   20:00   97.6    13    2.7   250      7.9   932.4    0.00       0    94.3
 241   20:10   97.3    14    2.2   230      7.6   932.4    0.00       0    93.8
 241   20:20   96.9    14    2.4   252      6.8   932.5    0.00       0    93.3
 241   20:30   96.6    14    2.1   246      6.1   932.5    0.00       0    93.0
 241   20:40   96.1    14    1.4   230      3.5   932.4    0.00       0    92.6
 241   20:50   95.5    15    1.8   205      3.6   932.5    0.00       0    91.9
 241   21:00   94.6    15    2.3   180      6.0   932.5    0.00       0    91.1
 241   21:10   95.1    15    1.9   203      5.2   932.4    0.00       0    90.8
 241   21:20   94.2    15    1.0   178      3.1   932.4    0.00       0    90.2
 241   21:30   93.9    16    2.8   180      9.1   932.5    0.00       0    89.8
 241   21:40   93.5    16    4.3   172     10.8   932.6    0.00       0    89.7
 241   21:50   93.5    16    4.1   198      9.1   932.8    0.00       0    89.8
 241   22:00   94.0    15    3.4   247      8.8   932.9    0.00       0    89.7
 241   22:10   94.3    14    3.7   249     10.3   933.0    0.00       0    89.9
 241   22:20   94.3    12    5.6   248     13.3   933.0    0.00       0    90.2
 241   22:30   94.2    12    6.8   249     14.4   933.0    0.00       0    90.6
 241   22:40   94.3    12    6.9   252     15.5   933.0    0.00       0    90.9
 241   22:50   94.1    12    7.5   252     15.2   933.0    0.00       0    91.1
 241   23:00   94.0    13    6.5   250     14.8   933.0    0.00       0    91.2
 241   23:10   93.7    13    5.9   252     13.5   933.1    0.00       0    91.1
 241   23:20   93.5    13    4.7   240     17.8   933.2    0.00       0    90.9
 241   23:30   92.9    13    4.2   248     15.1   933.3    0.00       0    90.4
 241   23:40   93.0    13    4.3   238     12.9   933.3    0.00       0    90.2
 241   23:50   92.6    13    4.2   242     13.4   933.3    0.00       0    90.0
 242    0:00   92.6    13    3.8   230     11.3   933.3    0.00       0    89.8
 242    0:10   92.2    14    3.4   241     13.5   933.3    0.00       0    89.5
 242    0:20   92.1    14    4.0   232     11.0   933.3    0.00       0    89.2
 242    0:30   91.8    14    2.8   226     13.9   933.3    0.00       0    88.9
 242    0:40   91.7    14    4.6   197     14.8   933.2    0.00       0    88.6
 242    0:50   91.5    14    2.4   164      7.2   933.2    0.00       0    88.4
 242    1:00   90.7    15    1.7   168      5.0   933.2    0.00       0    87.7
 242    1:10   90.8    15    2.9   173      9.6   933.2    0.00       0    87.3
 242    1:20   91.0    16    3.6   166     10.9   933.3    0.00       0    87.3
 242    1:30   90.8    16    4.3   154     10.4   933.4    0.00       0    87.2
 242    1:40   91.0    16    3.6   191     11.2   933.4    0.00       0    87.3
 242    1:50   90.5    16    3.3   206      9.0   933.5    0.00       0    87.0
 242    2:00   89.9    16    2.0   159      5.7   933.6    0.00       0    86.5
 242    2:10   89.9    16    2.3   140      4.9   933.7    0.00       0    86.2
 242    2:20   90.0    16    3.0   134      6.6   933.7    0.00       0    86.0
 242    2:30   90.0    16    2.6   151      6.8   933.8    0.00       0    86.0
 242    2:40   89.3    16    2.2   180      5.0   933.7    0.00       0    85.6
 242    2:50   88.6    17    3.0   142      8.3   933.7    0.00       0    85.0
 242    3:00   88.7    17    3.2   169      8.0   933.8    0.00       0    84.9
 242    3:10   88.1    18    2.4   180      6.9   933.8    0.00       0    84.5
 242    3:20   88.1    18    2.8   150      7.0   933.8    0.00       0    84.1
 242    3:30   88.2    18    3.1   186      8.3   933.8    0.00       0    84.1
 242    3:40   88.5    17    4.2   183     11.5   933.8    0.00       0    84.2
 242    3:50   88.2    18    4.5   209      8.3   933.9    0.00       0    84.1
 242    4:00   88.2    18    4.5   193     10.2   933.9    0.00       0    84.3
 242    4:10   87.8    19    3.9   185      9.5   934.0    0.00       0    84.2
 242    4:20   87.7    19    4.1   184      8.5   934.1    0.00       0    84.1
 242    4:30   87.5    19    5.4   185     11.2   934.2    0.00       0    84.0
 242    4:40   87.6    19    5.3   186     10.4   934.2    0.00       0    84.0
 242    4:50   87.6    19    4.2   170     10.9   934.3    0.00       0    84.0
 242    5:00   87.5    20    3.7   149      8.0   934.3    0.00       0    84.1
 242    5:10   87.4    20    3.3   144      8.5   934.4    0.00       5    84.1
 242    5:20   87.5    19    3.3   141      8.8   934.6    0.00       9    84.1
 242    5:30   87.4    19    3.6   142      9.0   934.7    0.00      21    84.1
 242    5:40   88.4    18    3.8   144      9.1   934.7    0.00      34    84.4
 242    5:50   89.1    18    3.1   143      6.4   934.9    0.00      47    85.0
 242    6:00   89.3    18    3.4   154      8.3   934.9    0.00      60    85.5
 242    6:10   89.2    18    3.2   169      7.5   934.9    0.00      94    85.8
 242    6:20   89.6    18    4.2   183      9.6   935.0    0.00     207    86.1
 242    6:30   90.1    18    3.4   158      9.1   935.0    0.00     243    86.7
 242    6:40   90.8    18    3.0   150      6.6   935.1    0.00     285    87.9
 242    6:50   91.5    17    3.0   156      7.5   935.1    0.00     337    90.8
 242    7:00   92.4    16    4.0   159      9.1   935.1    0.00     390    93.3
 242    7:10   92.6    16    4.8   154     13.5   935.2    0.00     417    95.0
 242    7:20   92.9    16    4.3   167     12.2   935.2    0.00     460    96.3
 242    7:30   93.2    16    4.6   174     11.0   935.2    0.00     548    97.4
 242    7:40   94.0    16    4.3   176     10.4   935.2    0.00     545    98.9
 242    7:50   94.6    15    3.6   164      8.2   935.2    0.00     514    99.8
 242    8:00   95.4    15    2.7   158      8.2   935.2    0.00     500    100.4
 242    8:10   95.6    14    3.8   177      9.6   935.2    0.00     620    100.9
 242    8:20   96.5    14    2.8   154      7.1   935.2    0.00     690    102.7
 242    8:30   97.7    14    4.6   184     10.6   935.3    0.00     758    104.2
 242    8:40   98.2    13    3.1   186     10.7   935.3    0.00     769    105.5
 242    8:50   98.5    13    3.6   190     10.3   935.3    0.00     730    106.3
 242    9:00   98.4    14    3.7   225      9.9   935.4    0.00     722    106.4
 242    9:10   97.7    14    3.1   207     10.7   935.4    0.00     597    106.1
 242    9:20   97.8    14    2.8   147      7.1   935.4    0.00     759    105.6
 242    9:30   99.2    13    3.0   191      8.3   935.4    0.00     754    106.6
 242    9:40   98.0    14    5.0   257     10.6   935.4    0.00     836    107.1
 242    9:50   97.6    14    7.4   267     14.5   935.3    0.00     867    106.8
 242   10:00   97.7    14    7.2   258     15.2   935.3    0.00     815    106.2
 242   10:10   98.5    14    7.4   262     14.2   935.2    0.00     935    106.7
 242   10:20   98.7    14    5.9   259     12.8   935.2    0.00     960    107.3
 242   10:30   99.6    14    5.2   249     11.5   935.1    0.00     989    107.9
 242   10:40  100.3    14    3.6   236      9.5   935.1    0.00     994    108.7
 242   10:50  100.2    14    5.2   250     13.4   934.9    0.00     996    109.3
 242   11:00  100.7    14    2.6   276      7.1   934.8    0.00    1004    109.8
 242   11:10  101.9    13    2.4   191      8.0   934.6    0.00    1017    110.6
 242   11:20  102.0    13    3.8   232     11.2   934.5    0.00    1025    111.1
 242   11:30  102.4    13    4.7   205     16.4   934.3    0.00    1037    111.4
 242   11:40  101.8    13    8.7   190     19.3   934.2    0.00    1053    110.9
 242   11:50  102.9    13    5.5   176     15.9   934.0    0.00    1071    110.9

Return to Henderson, Nevada graphs page.


Western Regional Climate Center,wrcc@dri.edu